Time;durP1;ratioP1;P1;durP2;ratioP2;P2;SDS_P1;SDS_P2;PMS_P1;PMS_P2;Temp;Humidity;BMP_temperature;BMP_pressure;BME280_temperature;BME280_humidity;BME280_pressure;Samples;Min_cycle;Max_cycle;Signal;HPM_P1;HPM_P2
2024/01/29 00:01:56;;;;;;;;;;;;;;;11.20;99.27;101735.09;7350878;19;19918;-66
2024/01/29 00:04:23;;;;;;;;;;;;;;;11.23;99.57;101737.44;7336517;19;20644;-67
2024/01/29 00:09:45;;;;;;;;;;;;;;;11.27;99.53;101733.59;7344729;19;19936;-68
2024/01/29 00:12:12;;;;;;;;;;;;;;;11.29;99.51;101736.91;7342176;19;19915;-67
2024/01/29 00:14:39;;;;;;;;;;;;;;;11.28;99.51;101734.41;7338206;19;19926;-67
2024/01/29 00:17:06;;;;;;;;;;;;;;;11.27;99.51;101724.84;7344495;19;19923;-66
2024/01/29 00:19:33;;;;;;;;;;;;;;;11.31;99.58;101732.34;7342736;19;20478;-68
2024/01/29 00:22:03;;;;;;;;;;;;;;;11.33;99.68;101740.94;7338167;19;20646;-67
2024/01/29 00:24:30;;;;;;;;;;;;;;;11.33;99.85;101732.19;7343879;19;19930;-68
2024/01/29 00:26:57;;;;;;;;;;;;;;;11.34;99.75;101733.88;7343700;19;20003;-66
2024/01/29 00:29:24;;;;;;;;;;;;;;;11.36;99.88;101727.50;7347006;19;19914;-66
2024/01/29 00:31:51;;;;;;;;;;;;;;;11.38;99.94;101719.44;7338465;19;19918;-66
2024/01/29 00:34:18;;;;;;;;;;;;;;;11.37;100.00;101720.44;7346357;19;19957;-66
2024/01/29 00:36:45;;;;;;;;;;;;;;;11.37;100.00;101725.72;7349388;19;19970;-66
2024/01/29 00:39:13;;;;;;;;;;;;;;;11.36;100.00;101713.50;7349775;19;19941;-68
2024/01/29 00:41:40;;;;;;;;;;;;;;;11.35;100.00;101717.09;7345991;19;20795;-66
2024/01/29 00:44:06;;;;;;;;;;;;;;;11.35;100.00;101717.09;7350276;19;20866;-66
2024/01/29 00:46:33;;;;;;;;;;;;;;;11.39;100.00;101726.38;7350417;19;19923;-66
2024/01/29 00:49:00;;;;;;;;;;;;;;;11.39;100.00;101715.84;7333752;19;19926;-65
2024/01/29 00:51:27;;;;;;;;;;;;;;;11.41;100.00;101717.41;7341925;19;19919;-66
2024/01/29 00:53:55;;;;;;;;;;;;;;;11.45;100.00;101724.06;7338196;19;19937;-67
2024/01/29 00:56:21;;;;;;;;;;;;;;;11.48;100.00;101721.13;7336753;19;19929;-68
2024/01/29 00:58:50;;;;;;;;;;;;;;;11.48;100.00;101725.56;7335676;19;19923;-66
2024/01/29 01:01:18;;;;;;;;;;;;;;;11.49;100.00;101714.91;7330425;19;19915;-66
2024/01/29 01:03:45;;;;;;;;;;;;;;;11.47;100.00;101724.75;7329839;19;19934;-66
2024/01/29 01:06:12;;;;;;;;;;;;;;;11.48;100.00;101730.84;7338000;19;19922;-67
2024/01/29 01:08:39;;;;;;;;;;;;;;;11.50;100.00;101734.19;7340446;19;19918;-66
2024/01/29 01:11:07;;;;;;;;;;;;;;;11.53;100.00;101732.09;7339960;19;19929;-67
2024/01/29 01:13:34;;;;;;;;;;;;;;;11.54;100.00;101727.66;7339337;19;19921;-66
2024/01/29 01:16:01;;;;;;;;;;;;;;;11.52;100.00;101730.47;7336274;19;19915;-66
2024/01/29 01:18:28;;;;;;;;;;;;;;;11.53;100.00;101729.47;7347300;19;19919;-66
2024/01/29 01:20:55;;;;;;;;;;;;;;;11.53;100.00;101728.63;7341021;19;19926;-70
2024/01/29 01:23:23;;;;;;;;;;;;;;;11.56;100.00;101723.94;7341174;19;19927;-66
2024/01/29 01:25:49;;;;;;;;;;;;;;;11.55;100.00;101738.06;7341933;19;19922;-67
2024/01/29 01:28:16;;;;;;;;;;;;;;;11.57;100.00;101740.59;7351702;19;20006;-67
2024/01/29 01:30:43;;;;;;;;;;;;;;;11.55;100.00;101742.50;7343545;19;20544;-67
2024/01/29 01:33:11;;;;;;;;;;;;;;;11.57;100.00;101738.78;7354204;19;19921;-67
2024/01/29 01:35:38;;;;;;;;;;;;;;;11.60;100.00;101729.75;7351267;19;19923;-66
2024/01/29 01:38:05;;;;;;;;;;;;;;;11.62;100.00;101730.47;7346413;19;20279;-66
2024/01/29 01:40:32;;;;;;;;;;;;;;;11.61;100.00;101735.88;7337941;19;19990;-68
2024/01/29 01:42:59;;;;;;;;;;;;;;;11.61;100.00;101738.50;7345674;19;20388;-69
2024/01/29 01:45:28;;;;;;;;;;;;;;;11.59;100.00;101741.25;7339912;19;19982;-67
2024/01/29 01:47:55;;;;;;;;;;;;;;;11.57;100.00;101738.78;7350024;19;20164;-67
2024/01/29 01:50:23;;;;;;;;;;;;;;;11.59;100.00;101744.72;7348181;19;19919;-66
2024/01/29 01:52:50;;;;;;;;;;;;;;;11.61;100.00;101752.50;7351528;19;19978;-67
2024/01/29 01:55:17;;;;;;;;;;;;;;;11.64;100.00;101751.38;7352020;19;20507;-67
2024/01/29 01:57:43;;;;;;;;;;;;;;;11.66;100.00;101745.03;7357839;19;20011;-67
2024/01/29 02:00:11;;;;;;;;;;;;;;;11.68;100.00;101745.75;7352127;19;20792;-68
2024/01/29 02:02:38;;;;;;;;;;;;;;;11.70;100.00;101751.69;7350979;19;19934;-69
2024/01/29 02:05:05;;;;;;;;;;;;;;;11.72;100.00;101743.66;7348558;19;19923;-69
2024/01/29 02:07:32;;;;;;;;;;;;;;;11.73;100.00;101742.72;7349155;19;19927;-68
2024/01/29 02:09:59;;;;;;;;;;;;;;;11.76;100.00;101759.09;7345603;19;19923;-67
2024/01/29 02:12:26;;;;;;;;;;;;;;;11.78;100.00;101754.53;7343230;19;19923;-67
2024/01/29 02:14:53;;;;;;;;;;;;;;;11.79;100.00;101753.53;7350132;19;19922;-68
2024/01/29 02:17:20;;;;;;;;;;;;;;;11.84;100.00;101750.47;7351353;19;20317;-67
2024/01/29 02:19:48;;;;;;;;;;;;;;;11.87;100.00;101745.78;7348180;19;19915;-69
2024/01/29 02:22:17;;;;;;;;;;;;;;;11.88;100.00;101741.34;7349787;19;20922;-69
2024/01/29 02:24:44;;;;;;;;;;;;;;;11.84;100.00;101743.41;7355709;19;19926;-67
2024/01/29 02:27:10;;;;;;;;;;;;;;;11.84;100.00;101745.19;7350639;19;19922;-68
2024/01/29 02:29:38;;;;;;;;;;;;;;;11.81;100.00;101737.56;7345160;19;19960;-70
2024/01/29 02:32:05;;;;;;;;;;;;;;;11.83;100.00;101733.00;7336354;19;20216;-66
2024/01/29 02:34:32;;;;;;;;;;;;;;;11.82;100.00;101733.97;7336857;19;20439;-68
2024/01/29 02:36:59;;;;;;;;;;;;;;;11.80;100.00;101728.84;7331834;19;19946;-68
2024/01/29 02:39:26;;;;;;;;;;;;;;;11.81;100.00;101743.69;7338517;19;19934;-67
2024/01/29 02:41:53;;;;;;;;;;;;;;;11.81;100.00;101732.31;7333095;19;19919;-68
2024/01/29 02:44:20;;;;;;;;;;;;;;;11.81;100.00;101745.50;7340354;19;19911;-68
2024/01/29 02:46:47;;;;;;;;;;;;;;;11.86;100.00;101741.47;7346861;19;20773;-67
2024/01/29 02:49:14;;;;;;;;;;;;;;;11.87;100.00;101740.50;7346808;19;21500;-70
2024/01/29 02:51:41;;;;;;;;;;;;;;;11.89;100.00;101737.69;7345404;19;21524;-67
2024/01/29 02:54:09;;;;;;;;;;;;;;;11.89;100.00;101745.63;7346509;19;20002;-68
2024/01/29 02:56:36;;;;;;;;;;;;;;;11.91;100.00;101746.31;7344986;19;19923;-67
2024/01/29 02:59:02;;;;;;;;;;;;;;;11.92;100.00;101743.56;7343176;19;19915;-67
2024/01/29 03:01:29;;;;;;;;;;;;;;;11.94;100.00;101746.88;7348335;19;19998;-67
2024/01/29 03:03:56;;;;;;;;;;;;;;;11.98;100.00;101744.81;7355786;19;21928;-67
2024/01/29 03:06:23;;;;;;;;;;;;;;;11.98;100.00;101750.09;7354901;19;19968;-67
2024/01/29 03:08:50;;;;;;;;;;;;;;;11.98;100.00;101753.56;7355600;19;20488;-68
2024/01/29 03:11:17;;;;;;;;;;;;;;;11.97;100.00;101749.25;7353841;19;20366;-68
2024/01/29 03:13:46;;;;;;;;;;;;;;;12.01;100.00;101744.50;7352963;19;19915;-67
2024/01/29 03:16:13;;;;;;;;;;;;;;;12.04;100.00;101749.50;7354672;19;20525;-68
2024/01/29 03:18:43;;;;;;;;;;;;;;;12.07;100.00;101748.41;7349314;19;19932;-67
2024/01/29 03:21:10;;;;;;;;;;;;;;;12.09;100.00;101743.84;7343778;19;20391;-68
2024/01/29 03:23:37;;;;;;;;;;;;;;;12.09;100.00;101739.38;7347308;19;19929;-66
2024/01/29 03:26:04;;;;;;;;;;;;;;;12.10;100.00;101745.47;7343012;19;20263;-67
2024/01/29 03:28:31;;;;;;;;;;;;;;;12.10;100.00;101751.59;7331689;19;20382;-68
2024/01/29 03:30:57;;;;;;;;;;;;;;;12.11;100.00;101741.88;7342616;19;20017;-67
2024/01/29 03:33:24;;;;;;;;;;;;;;;12.11;100.00;101744.50;7345252;19;19954;-67
2024/01/29 03:35:51;;;;;;;;;;;;;;;12.08;100.00;101744.81;7346597;19;19918;-69
2024/01/29 03:38:18;;;;;;;;;;;;;;;12.10;100.00;101740.19;7338972;19;19949;-67
2024/01/29 03:40:46;;;;;;;;;;;;;;;12.06;100.00;101731.75;7333336;19;19928;-68
2024/01/29 03:43:13;;;;;;;;;;;;;;;12.06;100.00;101736.19;7336023;19;20715;-68
2024/01/29 03:45:40;;;;;;;;;;;;;;;12.06;100.00;101736.19;7345699;19;19915;-67
2024/01/29 03:48:07;;;;;;;;;;;;;;;12.06;100.00;101744.94;7332107;19;19947;-67
2024/01/29 03:50:34;;;;;;;;;;;;;;;12.09;100.00;101738.56;7336024;19;19970;-68
2024/01/29 03:53:01;;;;;;;;;;;;;;;12.09;100.00;101738.56;7334499;19;20470;-67
2024/01/29 03:55:28;;;;;;;;;;;;;;;12.08;100.00;101719.25;7339316;19;19925;-67
2024/01/29 03:57:55;;;;;;;;;;;;;;;12.09;100.00;101733.28;7334120;19;20256;-68
2024/01/29 04:00:23;;;;;;;;;;;;;;;12.10;100.00;101721.72;7338900;19;20288;-66
2024/01/29 04:02:50;;;;;;;;;;;;;;;12.14;100.00;101734.50;7342684;19;19926;-67
2024/01/29 04:05:17;;;;;;;;;;;;;;;12.16;100.00;101735.19;7344443;19;19927;-67
2024/01/29 04:07:45;;;;;;;;;;;;;;;12.14;100.00;101731.06;7339624;19;19929;-68
2024/01/29 04:10:12;;;;;;;;;;;;;;;12.10;100.00;101722.56;7340489;19;20583;-67
2024/01/29 04:12:39;;;;;;;;;;;;;;;12.13;100.00;101735.50;7340201;19;20419;-67
2024/01/29 04:15:06;;;;;;;;;;;;;;;12.12;100.00;101728.56;7346490;19;20299;-67
2024/01/29 04:17:33;;;;;;;;;;;;;;;12.11;100.00;101733.97;7339857;19;20256;-68
2024/01/29 04:20:00;;;;;;;;;;;;;;;12.11;100.00;101734.78;7346425;19;19911;-69
2024/01/29 04:22:27;;;;;;;;;;;;;;;12.11;100.00;101747.16;7334376;19;20429;-66
2024/01/29 04:24:54;;;;;;;;;;;;;;;12.12;100.00;101749.66;7339002;19;20001;-66
2024/01/29 04:27:21;;;;;;;;;;;;;;;12.11;100.00;101742.72;7349741;19;19933;-70
2024/01/29 04:29:48;;;;;;;;;;;;;;;12.11;100.00;101745.34;7345121;19;20122;-68
2024/01/29 04:32:14;;;;;;;;;;;;;;;12.13;100.00;101750.50;7341097;19;19919;-68
2024/01/29 04:34:41;;;;;;;;;;;;;;;12.12;100.00;101752.28;7346212;19;19982;-66
2024/01/29 04:37:09;;;;;;;;;;;;;;;12.12;100.00;101764.66;7345214;19;19914;-67
2024/01/29 04:39:39;;;;;;;;;;;;;;;12.09;100.00;101765.75;7338973;19;19919;-66
2024/01/29 04:42:06;;;;;;;;;;;;;;;12.11;100.00;101762.97;7337102;19;19918;-68
2024/01/29 04:44:33;;;;;;;;;;;;;;;12.16;100.00;101776.59;7337081;19;19921;-67
2024/01/29 04:47:00;;;;;;;;;;;;;;;12.16;100.00;101772.13;7344440;19;19929;-69
2024/01/29 04:49:27;;;;;;;;;;;;;;;12.16;100.00;101769.50;7337509;19;19927;-68
2024/01/29 04:51:54;;;;;;;;;;;;;;;12.16;100.00;101761.59;7339233;19;19926;-69
2024/01/29 04:54:21;;;;;;;;;;;;;;;12.17;100.00;101767.69;7344850;19;19966;-69
2024/01/29 04:56:48;;;;;;;;;;;;;;;12.19;100.00;101763.13;7338095;19;19911;-69
2024/01/29 04:59:15;;;;;;;;;;;;;;;12.21;100.00;101763.81;7349995;19;19929;-68
2024/01/29 05:01:41;;;;;;;;;;;;;;;12.18;100.00;101767.56;7348360;19;20935;-69
2024/01/29 05:04:08;;;;;;;;;;;;;;;12.20;100.00;101768.25;7346663;19;19926;-69
2024/01/29 05:06:35;;;;;;;;;;;;;;;12.20;100.00;101768.25;7353418;19;20026;-68
2024/01/29 05:09:02;;;;;;;;;;;;;;;12.20;100.00;101764.78;7353027;19;19915;-67
2024/01/29 05:11:29;;;;;;;;;;;;;;;12.19;100.00;101771.84;7344699;19;19923;-68
2024/01/29 05:13:56;;;;;;;;;;;;;;;12.19;100.00;101768.41;7345364;19;19919;-70
2024/01/29 05:16:23;;;;;;;;;;;;;;;12.16;100.00;101768.66;7346157;19;19925;-69
2024/01/29 05:18:50;;;;;;;;;;;;;;;12.18;100.00;101766.72;7347925;19;19919;-67
2024/01/29 05:21:17;;;;;;;;;;;;;;;12.17;100.00;101771.19;7348086;19;19919;-68
2024/01/29 05:23:44;;;;;;;;;;;;;;;12.17;100.00;101778.25;7341499;19;19918;-67
2024/01/29 05:26:11;;;;;;;;;;;;;;;12.14;100.00;101768.78;7350279;19;20029;-67
2024/01/29 05:28:38;;;;;;;;;;;;;;;12.18;100.00;101774.66;7345561;19;19922;-68
2024/01/29 05:31:05;;;;;;;;;;;;;;;12.19;100.00;101776.31;7341880;19;20594;-69
2024/01/29 05:33:32;;;;;;;;;;;;;;;12.16;100.00;101774.78;7350105;19;19977;-67
2024/01/29 05:35:59;;;;;;;;;;;;;;;12.18;100.00;101785.19;7351339;19;19919;-67
2024/01/29 05:38:26;;;;;;;;;;;;;;;12.17;100.00;101778.25;7342906;19;20002;-69
2024/01/29 05:40:53;;;;;;;;;;;;;;;12.18;100.00;101777.28;7342563;19;20022;-68
2024/01/29 05:43:20;;;;;;;;;;;;;;;12.19;100.00;101773.69;7341121;19;21809;-68
2024/01/29 05:45:48;;;;;;;;;;;;;;;12.18;100.00;101779.94;7343957;19;19923;-68
2024/01/29 05:48:19;;;;;;;;;;;;;;;12.17;100.00;101773.81;7346787;19;20344;-67
2024/01/29 05:50:46;;;;;;;;;;;;;;;12.18;100.00;101777.28;7340195;19;20026;-68
2024/01/29 05:53:13;;;;;;;;;;;;;;;12.17;100.00;101783.53;7347661;19;21107;-68
2024/01/29 05:55:41;;;;;;;;;;;;;;;12.18;100.00;101782.56;7333975;19;20213;-68
2024/01/29 05:58:12;;;;;;;;;;;;;;;12.18;100.00;101788.69;7335894;19;19926;-68
2024/01/29 06:00:38;;;;;;;;;;;;;;;12.14;100.00;101783.81;7346852;19;19926;-68
2024/01/29 06:03:05;;;;;;;;;;;;;;;12.17;100.00;101797.56;7349381;19;19935;-68
2024/01/29 06:05:32;;;;;;;;;;;;;;;12.17;100.00;101792.28;7341272;19;20834;-65
2024/01/29 06:08:03;;;;;;;;;;;;;;;12.19;100.00;101797.44;7333125;19;19927;-67
2024/01/29 06:10:38;;;;;;;;;;;;;;;12.19;100.00;101806.16;7347211;19;19923;-68
2024/01/29 06:13:06;;;;;;;;;;;;;;;12.18;100.00;101808.94;7344237;19;19923;-68
2024/01/29 06:15:50;;;;;;;;;;;;;;;12.18;100.00;101804.50;7337462;19;19972;-67
2024/01/29 06:18:18;;;;;;;;;;;;;;;12.16;100.00;101801.16;7349801;19;20683;-67
2024/01/29 06:20:45;;;;;;;;;;;;;;;12.19;100.00;101814.06;7344502;19;19994;-68
2024/01/29 06:23:12;;;;;;;;;;;;;;;12.21;100.00;101806.84;7346640;19;19951;-67
2024/01/29 06:25:39;;;;;;;;;;;;;;;12.23;100.00;101812.84;7347745;19;20862;-69
2024/01/29 06:28:07;;;;;;;;;;;;;;;12.24;100.00;101817.13;7331211;19;19914;-69
2024/01/29 06:30:34;;;;;;;;;;;;;;;12.24;100.00;101816.31;7342473;19;20675;-68
2024/01/29 06:33:01;;;;;;;;;;;;;;;12.24;100.00;101816.31;7348301;19;20339;-67
2024/01/29 06:35:28;;;;;;;;;;;;;;;12.25;100.00;101813.50;7342901;19;19915;-67
2024/01/29 06:37:55;;;;;;;;;;;;;;;12.28;100.00;101813.25;7349223;19;19919;-67
2024/01/29 06:40:27;;;;;;;;;;;;;;;12.26;100.00;101807.28;7343008;19;20009;-69
2024/01/29 06:42:55;;;;;;;;;;;;;;;12.29;100.00;101812.25;7337953;19;19987;-66
2024/01/29 06:45:22;;;;;;;;;;;;;;;12.25;100.00;101813.50;7347088;19;20694;-68
2024/01/29 06:47:49;;;;;;;;;;;;;;;12.23;100.00;101817.28;7340475;19;19938;-68
2024/01/29 06:50:16;;;;;;;;;;;;;;;12.25;100.00;101820.59;7342135;19;19926;-69
2024/01/29 06:52:43;;;;;;;;;;;;;;;12.26;100.00;101819.63;7344209;19;19948;-66
2024/01/29 06:55:10;;;;;;;;;;;;;;;12.23;100.00;101822.56;7342010;19;21570;-67
2024/01/29 06:57:37;;;;;;;;;;;;;;;12.25;100.00;101820.59;7347556;19;19931;-67
2024/01/29 07:00:08;;;;;;;;;;;;;;;12.21;100.00;101840.31;7347457;19;20336;-70
2024/01/29 07:02:34;;;;;;;;;;;;;;;12.18;100.00;101840.63;7340167;19;21070;-67
2024/01/29 07:05:01;;;;;;;;;;;;;;;12.22;100.00;101845.47;7349228;19;19930;-69
2024/01/29 07:07:28;;;;;;;;;;;;;;;12.22;100.00;101836.72;7342538;19;19924;-68
2024/01/29 07:09:55;;;;;;;;;;;;;;;12.20;100.00;101842.13;7345437;19;19950;-68
2024/01/29 07:12:22;;;;;;;;;;;;;;;12.18;100.00;101837.97;7337148;19;19918;-67
2024/01/29 07:14:52;;;;;;;;;;;;;;;12.17;100.00;101842.41;7334084;19;19919;-67
2024/01/29 07:17:19;;;;;;;;;;;;;;;12.20;100.00;101844.75;7336332;19;19939;-68
2024/01/29 07:19:48;;;;;;;;;;;;;;;12.20;100.00;101838.66;7347144;19;19927;-68
2024/01/29 07:22:19;;;;;;;;;;;;;;;12.21;100.00;101849.06;7343116;19;19919;-68
2024/01/29 07:24:46;;;;;;;;;;;;;;;12.19;100.00;101848.38;7339755;19;19930;-66
2024/01/29 07:27:13;;;;;;;;;;;;;;;12.19;100.00;101847.56;7337631;19;19939;-70
2024/01/29 07:29:40;;;;;;;;;;;;;;;12.17;100.00;101844.22;7344889;19;19922;-67
2024/01/29 07:32:06;;;;;;;;;;;;;;;12.19;100.00;101847.56;7337819;19;19926;-67
2024/01/29 07:34:34;;;;;;;;;;;;;;;12.21;100.00;101848.25;7340660;19;20294;-70
2024/01/29 07:37:01;;;;;;;;;;;;;;;12.22;100.00;101842.00;7346801;19;20304;-68
2024/01/29 07:39:28;;;;;;;;;;;;;;;12.21;100.00;101845.59;7340703;19;19994;-68
2024/01/29 07:41:55;;;;;;;;;;;;;;;12.20;100.00;101846.56;7335584;19;19930;-69
2024/01/29 07:44:22;;;;;;;;;;;;;;;12.20;100.00;101843.94;7346522;19;19915;-68
2024/01/29 07:46:49;;;;;;;;;;;;;;;12.22;100.00;101850.75;7348970;19;20544;-69
2024/01/29 07:49:16;;;;;;;;;;;;;;;12.22;100.00;101836.72;7338849;19;20182;-68
2024/01/29 07:51:43;;;;;;;;;;;;;;;12.20;100.00;101844.75;7336864;19;19919;-68
2024/01/29 07:54:10;;;;;;;;;;;;;;;12.21;100.00;101848.25;7336834;19;19942;-69
2024/01/29 07:56:39;;;;;;;;;;;;;;;12.22;100.00;101847.28;7337608;19;19926;-68
2024/01/29 07:59:06;;;;;;;;;;;;;;;12.24;100.00;101848.78;7342826;19;19918;-67
2024/01/29 08:01:33;;;;;;;;;;;;;;;12.29;100.00;101848.41;7331366;19;19926;-69
2024/01/29 08:04:01;;;;;;;;;;;;;;;12.29;100.00;101853.69;7341863;19;20009;-67
2024/01/29 08:06:28;;;;;;;;;;;;;;;12.30;100.00;101850.03;7346123;19;19926;-69
2024/01/29 08:08:56;;;;;;;;;;;;;;;12.31;100.00;101849.06;7340955;19;19929;-69
2024/01/29 08:11:23;;;;;;;;;;;;;;;12.30;100.00;101845.59;7344685;19;19927;-68
2024/01/29 08:13:50;;;;;;;;;;;;;;;12.35;100.00;101847.81;7343592;19;19922;-68
2024/01/29 08:16:17;;;;;;;;;;;;;;;12.37;100.00;101846.72;7345671;19;19927;-70
2024/01/29 08:18:44;;;;;;;;;;;;;;;12.36;100.00;101847.69;7330584;19;19944;-69
2024/01/29 08:21:11;;;;;;;;;;;;;;;12.40;100.00;101850.88;7330456;19;19929;-70
2024/01/29 08:23:38;;;;;;;;;;;;;;;12.38;100.00;101855.47;7332587;19;19922;-68
2024/01/29 08:26:06;;;;;;;;;;;;;;;12.39;100.00;101854.50;7340163;19;20026;-68
2024/01/29 08:28:33;;;;;;;;;;;;;;;12.37;100.00;101857.28;7347416;19;19919;-68
2024/01/29 08:31:02;;;;;;;;;;;;;;;12.40;100.00;101854.34;7361933;19;20424;-68
2024/01/29 08:33:29;;;;;;;;;;;;;;;12.40;100.00;101859.63;7360695;19;19955;-68
2024/01/29 08:35:57;;;;;;;;;;;;;;;12.39;100.00;101859.78;7361011;19;19923;-67
2024/01/29 08:38:24;;;;;;;;;;;;;;;12.40;100.00;101857.00;7360907;19;20356;-70
2024/01/29 08:40:51;;;;;;;;;;;;;;;12.41;100.00;101863.09;7354578;19;20208;-66
2024/01/29 08:43:19;;;;;;;;;;;;;;;12.46;100.00;101863.53;7352689;19;19930;-68
2024/01/29 08:45:48;;;;;;;;;;;;;;;12.53;100.00;101863.81;7354261;19;19930;-68
2024/01/29 08:48:15;;;;;;;;;;;;;;;12.63;100.00;101860.19;7347337;19;19927;-67
2024/01/29 08:50:42;;;;;;;;;;;;;;;12.82;100.00;101864.59;7360676;19;20539;-67
2024/01/29 08:53:09;;;;;;;;;;;;;;;12.85;100.00;101857.22;7357729;19;19946;-67
2024/01/29 08:55:36;;;;;;;;;;;;;;;12.90;100.00;101859.44;7354133;19;19945;-68
2024/01/29 08:58:04;;;;;;;;;;;;;;;12.88;100.00;101855.28;7352406;19;20534;-69
2024/01/29 09:00:32;;;;;;;;;;;;;;;12.81;100.00;101858.47;7359759;19;20091;-69
2024/01/29 09:02:59;;;;;;;;;;;;;;;12.79;100.00;101856.97;7352119;19;20655;-69
2024/01/29 09:05:26;;;;;;;;;;;;;;;12.79;100.00;101863.09;7362703;19;19929;-68
2024/01/29 09:07:53;;;;;;;;;;;;;;;12.81;100.00;101860.28;7351198;19;20569;-67
2024/01/29 09:10:23;;;;;;;;;;;;;;;12.75;100.00;101858.22;7355200;19;20729;-68
2024/01/29 09:12:54;;;;;;;;;;;;;;;12.80;100.00;101869.19;7351561;19;21933;-68
2024/01/29 09:15:21;;;;;;;;;;;;;;;12.83;100.00;101868.91;7358073;19;19921;-67
2024/01/29 09:17:48;;;;;;;;;;;;;;;12.86;100.00;101869.47;7351688;19;19915;-67
2024/01/29 09:20:15;;;;;;;;;;;;;;;12.86;100.00;101876.53;7354778;19;19915;-67
2024/01/29 09:22:42;;;;;;;;;;;;;;;12.88;100.00;101869.31;7356501;19;19919;-68
2024/01/29 09:25:09;;;;;;;;;;;;;;;12.86;100.00;101880.03;7355454;19;19921;-69
2024/01/29 09:27:37;;;;;;;;;;;;;;;12.93;100.00;101885.59;7353387;19;19919;-68
2024/01/29 09:30:05;;;;;;;;;;;;;;;12.89;100.00;101881.56;7356964;19;19929;-68
2024/01/29 09:32:32;;;;;;;;;;;;;;;12.90;100.00;101885.03;7354666;19;19929;-68
2024/01/29 09:34:59;;;;;;;;;;;;;;;12.94;100.00;101887.25;7358263;19;19923;-67
2024/01/29 09:37:27;;;;;;;;;;;;;;;12.90;100.00;101895.59;7357956;19;19923;-68
2024/01/29 09:39:55;;;;;;;;;;;;;;;12.91;100.00;101903.38;7338902;19;19998;-68
2024/01/29 09:42:28;;;;;;;;;;;;;;;12.92;100.00;101899.75;7348687;19;19911;-69
2024/01/29 09:44:59;;;;;;;;;;;;;;;12.95;100.00;101899.50;7348583;19;19925;-68
2024/01/29 09:47:26;;;;;;;;;;;;;;;13.00;100.00;101891.13;7344587;19;19923;-68
2024/01/29 09:49:54;;;;;;;;;;;;;;;12.99;100.00;101892.94;7344683;19;19923;-68
2024/01/29 09:52:21;;;;;;;;;;;;;;;12.96;100.00;101884.44;7344766;19;19933;-68
2024/01/29 09:54:49;;;;;;;;;;;;;;;12.98;100.00;101885.16;7348520;19;19922;-68
2024/01/29 09:57:16;;;;;;;;;;;;;;;13.00;100.00;101881.41;7350531;19;19927;-67
2024/01/29 09:59:43;;;;;;;;;;;;;;;13.06;100.00;101888.75;7350145;19;20005;-68
2024/01/29 10:02:11;;;;;;;;;;;;;;;13.09;100.00;101885.84;7350675;19;19915;-67
2024/01/29 10:04:39;;;;;;;;;;;;;;;13.11;100.00;101889.19;7350260;19;19918;-68
2024/01/29 10:07:10;;;;;;;;;;;;;;;13.14;100.00;101883.63;7345487;19;19978;-69
2024/01/29 10:09:38;;;;;;;;;;;;;;;13.16;100.00;101883.47;7350341;19;19929;-67
2024/01/29 10:12:06;;;;;;;;;;;;;;;13.19;100.00;101888.47;7348894;19;19914;-67
2024/01/29 10:14:34;;;;;;;;;;;;;;;13.17;100.00;101885.13;7342769;19;19918;-67
2024/01/29 10:17:01;;;;;;;;;;;;;;;13.27;100.00;101878.00;7348782;19;20759;-68
2024/01/29 10:19:37;;;;;;;;;;;;;;;13.31;100.00;101882.03;7344542;19;21566;-68
2024/01/29 10:22:15;;;;;;;;;;;;;;;13.33;100.00;101877.44;7346547;19;19935;-67
2024/01/29 10:24:44;;;;;;;;;;;;;;;13.34;100.00;101878.28;7349643;19;20442;-68
2024/01/29 10:27:11;;;;;;;;;;;;;;;13.35;100.00;101875.50;7343982;19;19923;-67
2024/01/29 10:29:47;;;;;;;;;;;;;;;13.37;100.00;101877.97;7346489;19;19923;-69
2024/01/29 10:32:14;;;;;;;;;;;;;;;13.47;100.00;101878.75;7343362;19;20981;-67
2024/01/29 10:34:41;;;;;;;;;;;;;;;13.47;100.00;101874.31;7347312;19;19990;-68
2024/01/29 10:37:10;;;;;;;;;;;;;;;13.49;99.70;101879.47;7349351;19;19918;-68
2024/01/29 10:39:38;;;;;;;;;;;;;;;13.55;99.70;101878.88;7347625;19;20765;-68
2024/01/29 10:42:17;;;;;;;;;;;;;;;13.61;99.34;101875.66;7350132;19;20146;-67
2024/01/29 10:44:45;;;;;;;;;;;;;;;13.64;99.20;101885.94;7350834;19;19945;-67
2024/01/29 10:47:24;;;;;;;;;;;;;;;13.65;98.70;101877.03;7343710;19;19918;-68
2024/01/29 10:49:52;;;;;;;;;;;;;;;13.67;98.52;101875.06;7341460;19;19930;-69
2024/01/29 10:52:20;;;;;;;;;;;;;;;13.73;98.60;101887.69;7341765;19;19933;-68
2024/01/29 10:54:47;;;;;;;;;;;;;;;13.77;98.25;101888.22;7343654;19;19925;-69
2024/01/29 10:57:14;;;;;;;;;;;;;;;13.79;98.21;101878.34;7340414;19;19927;-66
2024/01/29 10:59:42;;;;;;;;;;;;;;;13.79;97.77;101873.06;7339221;19;19994;-67
2024/01/29 11:02:18;;;;;;;;;;;;;;;13.79;97.62;101867.75;7342862;19;19923;-66
2024/01/29 11:04:45;;;;;;;;;;;;;;;13.83;97.41;101875.25;7345651;19;19979;-67
2024/01/29 11:07:30;;;;;;;;;;;;;;;13.83;97.28;101866.47;7337410;19;20402;-66
2024/01/29 11:10:02;;;;;;;;;;;;;;;13.82;97.40;101865.66;7344583;19;19925;-66
2024/01/29 11:12:30;;;;;;;;;;;;;;;13.85;97.27;101875.94;7347944;19;20442;-65
2024/01/29 11:15:00;;;;;;;;;;;;;;;13.89;97.58;101876.47;7349956;19;20039;-65
2024/01/29 11:17:27;;;;;;;;;;;;;;;13.90;97.20;101868.41;7345390;19;20262;-66
2024/01/29 11:19:58;;;;;;;;;;;;;;;13.96;96.93;101873.09;7347374;19;19930;-65
2024/01/29 11:22:33;;;;;;;;;;;;;;;13.92;96.62;101866.41;7339627;19;19923;-66
2024/01/29 11:25:04;;;;;;;;;;;;;;;13.96;96.55;101865.16;7337180;19;20006;-66
2024/01/29 11:27:31;;;;;;;;;;;;;;;13.98;96.85;101867.63;7346072;19;20878;-66
2024/01/29 11:29:58;;;;;;;;;;;;;;;13.97;96.17;101871.25;7347586;19;19914;-66
2024/01/29 11:32:30;;;;;;;;;;;;;;;13.95;96.26;101873.25;7344985;19;20006;-66
2024/01/29 11:35:07;;;;;;;;;;;;;;;13.94;96.06;101871.56;7344828;19;20474;-66
2024/01/29 11:37:34;;;;;;;;;;;;;;;13.95;96.29;101871.44;7351836;19;19927;-66
2024/01/29 11:40:00;;;;;;;;;;;;;;;13.96;96.72;101867.81;7343377;19;19919;-66
2024/01/29 11:42:27;;;;;;;;;;;;;;;13.96;96.55;101864.31;7342523;19;20388;-67
2024/01/29 11:44:55;;;;;;;;;;;;;;;13.93;96.25;101862.78;7346239;19;19926;-67
2024/01/29 11:47:24;;;;;;;;;;;;;;;13.96;96.25;101865.16;7338281;19;19927;-67
2024/01/29 11:49:51;;;;;;;;;;;;;;;13.98;96.33;101857.88;7337585;19;19914;-66
2024/01/29 11:52:18;;;;;;;;;;;;;;;14.03;96.85;101849.50;7340804;19;21108;-67
2024/01/29 11:54:45;;;;;;;;;;;;;;;14.06;96.49;101858.00;7351093;19;19930;-65
2024/01/29 11:57:12;;;;;;;;;;;;;;;14.10;96.08;101845.28;7351694;19;20200;-67
2024/01/29 11:59:48;;;;;;;;;;;;;;;14.17;95.83;101848.97;7345209;19;19923;-66
2024/01/29 12:02:15;;;;;;;;;;;;;;;14.20;95.46;101847.84;7346123;19;21602;-68
2024/01/29 12:04:43;;;;;;;;;;;;;;;14.20;95.02;101853.16;7349054;19;19915;-66
2024/01/29 12:07:10;;;;;;;;;;;;;;;14.20;93.90;101851.34;7345695;19;20439;-66
2024/01/29 12:09:38;;;;;;;;;;;;;;;14.19;93.59;101854.97;7346787;19;19926;-66
2024/01/29 12:12:09;;;;;;;;;;;;;;;14.20;93.60;101855.78;7344538;19;19983;-66
2024/01/29 12:14:36;;;;;;;;;;;;;;;14.18;93.88;101853.28;7353179;19;20171;-67
2024/01/29 12:17:05;;;;;;;;;;;;;;;14.11;94.01;101847.78;7348067;19;19932;-66
2024/01/29 12:19:33;;;;;;;;;;;;;;;14.14;94.40;101849.28;7344762;19;20449;-68
2024/01/29 12:21:59;;;;;;;;;;;;;;;14.13;94.42;101856.38;7343447;19;19927;-66
2024/01/29 12:24:27;;;;;;;;;;;;;;;14.06;94.62;101854.50;7336732;19;20415;-65
2024/01/29 12:26:53;;;;;;;;;;;;;;;13.98;94.66;101849.13;7341682;19;20278;-65
2024/01/29 12:29:20;;;;;;;;;;;;;;;13.97;94.77;101850.94;7345060;19;19911;-67
2024/01/29 12:31:47;;;;;;;;;;;;;;;13.94;95.30;101851.25;7346865;19;20042;-66
2024/01/29 12:34:18;;;;;;;;;;;;;;;13.97;95.72;101847.44;7348330;19;19922;-66